Time;durP1;ratioP1;P1;durP2;ratioP2;P2;SDS_P1;SDS_P2;PMS_P1;PMS_P2;Temp;Humidity;BMP_temperature;BMP_pressure;BME280_temperature;BME280_humidity;BME280_pressure;Samples;Min_cycle;Max_cycle;Signal;HPM_P1;HPM_P2
2022/06/08 00:00:18;;;;;;;9.23;5.70;;;22.90;94.10;;;;;;5054658;28;20361;-75
2022/06/08 00:02:48;;;;;;;8.20;5.80;;;22.90;94.60;;;;;;5054496;28;20025;-75
2022/06/08 00:05:13;;;;;;;6.60;5.50;;;22.90;93.70;;;;;;5053259;28;20021;-76
2022/06/08 00:07:39;;;;;;;9.68;5.13;;;22.90;92.30;;;;;;5054274;28;20021;-74
2022/06/08 00:10:06;;;;;;;9.48;5.40;;;22.90;92.70;;;;;;5054122;28;20021;-74
2022/06/08 00:12:32;;;;;;;13.32;6.32;;;22.90;92.80;;;;;;5053163;28;20021;-75
2022/06/08 00:14:58;;;;;;;9.35;5.78;;;22.90;93.90;;;;;;5054361;28;20021;-75
2022/06/08 00:17:24;;;;;;;8.40;5.68;;;22.80;96.20;;;;;;5054113;28;20028;-75
2022/06/08 00:19:49;;;;;;;7.32;5.95;;;22.80;97.40;;;;;;5054033;28;20021;-75
2022/06/08 00:22:17;;;;;;;9.93;5.63;;;22.70;99.50;;;;;;5053793;28;20029;-75
2022/06/08 00:24:43;;;;;;;7.55;5.88;;;22.60;99.90;;;;;;5053989;28;20090;-76
2022/06/08 00:27:09;;;;;;;6.00;4.97;;;22.50;99.90;;;;;;5054234;28;20443;-76
2022/06/08 00:29:35;;;;;;;7.05;5.97;;;22.50;99.90;;;;;;5053874;28;20062;-76
2022/06/08 00:32:01;;;;;;;7.65;6.72;;;22.50;99.90;;;;;;5053020;28;20052;-76
2022/06/08 00:34:27;;;;;;;9.15;6.90;;;22.40;99.90;;;;;;5053805;28;20092;-76
2022/06/08 00:36:52;;;;;;;7.40;6.57;;;22.40;99.90;;;;;;5053471;28;20025;-76
2022/06/08 00:39:18;;;;;;;8.70;7.05;;;22.40;99.90;;;;;;5054316;28;20104;-75
2022/06/08 00:41:50;;;;;;;12.18;7.10;;;22.40;99.90;;;;;;5052697;28;20017;-75
2022/06/08 00:44:31;;;;;;;;;;;22.30;99.90;;;;;;5054106;28;20062;-76
2022/06/08 00:46:59;;;;;;;13.07;7.07;;;22.30;99.90;;;;;;5053823;28;19909;-75
2022/06/08 00:49:30;;;;;;;9.95;7.10;;;22.30;99.90;;;;;;5052580;28;20353;-75
2022/06/08 00:51:59;;;;;;;9.47;7.63;;;22.20;99.90;;;;;;5051990;28;20032;-75
2022/06/08 00:54:30;;;;;;;8.75;7.03;;;22.10;99.90;;;;;;5052846;28;20021;-76
2022/06/08 00:57:06;;;;;;;10.18;7.28;;;22.00;99.90;;;;;;5053968;28;20028;-77
2022/06/08 00:59:36;;;;;;;8.32;6.50;;;21.90;99.90;;;;;;5053944;28;20025;-74
2022/06/08 01:02:02;;;;;;;16.85;7.70;;;21.80;99.90;;;;;;5053492;28;20155;-75
2022/06/08 01:04:29;;;;;;;10.05;6.82;;;21.70;99.90;;;;;;5053703;28;20017;-75
2022/06/08 01:06:58;;;;;;;13.63;7.07;;;21.60;99.90;;;;;;5053792;28;20119;-77
2022/06/08 01:09:36;;;;;;;12.75;7.22;;;21.60;99.90;;;;;;5053680;28;20021;-76
2022/06/08 01:12:09;;;;;;;11.25;6.82;;;21.50;99.90;;;;;;5053543;28;20021;-76
2022/06/08 01:14:36;;;;;;;14.85;7.93;;;21.40;99.90;;;;;;5053508;28;20025;-76
2022/06/08 01:17:22;;;;;;;10.38;7.70;;;21.40;99.90;;;;;;5053386;28;20083;-76
2022/06/08 01:19:49;;;;;;;12.88;7.38;;;21.30;99.90;;;;;;5053415;28;20037;-76
2022/06/08 01:22:17;;;;;;;10.70;7.10;;;21.10;99.90;;;;;;5053269;28;20090;-76
2022/06/08 01:24:46;;;;;;;38.13;16.27;;;21.10;99.90;;;;;;5053242;28;20078;-75
2022/06/08 01:27:18;;;;;;;40.72;22.60;;;21.00;99.90;;;;;;5052928;28;20029;-76
2022/06/08 01:30:08;;;;;;;27.38;16.48;;;21.00;99.90;;;;;;5053501;28;20032;-77
2022/06/08 01:32:58;;;;;;;55.03;21.73;;;20.90;99.90;;;;;;5053176;28;20017;-75
2022/06/08 01:35:33;;;;;;;69.00;31.00;;;20.90;99.90;;;;;;5057422;28;20025;-77
2022/06/08 01:38:24;;;;;;;58.72;27.40;;;20.90;99.90;;;;;;5057509;28;20075;-76
2022/06/08 01:40:52;;;;;;;46.88;26.27;;;20.80;99.90;;;;;;5057070;28;20051;-75
2022/06/08 01:43:27;;;;;;;69.93;27.60;;;20.80;99.90;;;;;;5057239;28;20017;-75
2022/06/08 01:46:02;;;;;;;43.20;17.52;;;20.70;99.90;;;;;;5057345;28;20029;-75
2022/06/08 01:49:01;;;;;;;32.45;16.95;;;20.70;99.90;;;;;;5057097;28;20037;-76
2022/06/08 01:52:02;;;;;;;30.85;11.02;;;20.60;99.90;;;;;;5055246;28;20037;-75
2022/06/08 01:54:45;;;;;;;44.08;22.90;;;20.60;99.90;;;;;;5056779;28;20025;-76
2022/06/08 01:57:29;;;;;;;46.40;22.52;;;20.50;99.90;;;;;;5057304;28;20036;-76
2022/06/08 02:00:20;;;;;;;48.10;15.50;;;20.50;99.90;;;;;;5057038;28;20115;-75
2022/06/08 02:03:14;;;;;;;78.35;27.40;;;20.50;99.90;;;;;;5056705;28;20099;-75
2022/06/08 02:05:58;;;;;;;77.63;27.95;;;20.60;99.90;;;;;;5057059;28;20440;-75
2022/06/08 02:08:37;;;;;;;112.05;57.30;;;20.60;99.90;;;;;;5056194;28;20414;-77
2022/06/08 02:11:02;;;;;;;54.33;23.08;;;20.70;99.90;;;;;;5056819;28;20017;-77
2022/06/08 02:13:52;;;;;;;37.13;15.98;;;20.70;99.90;;;;;;5056396;28;20025;-76
2022/06/08 02:16:26;;;;;;;66.43;15.45;;;20.60;99.90;;;;;;5055622;28;20033;-77
2022/06/08 02:19:17;;;;;;;12.82;8.75;;;20.60;99.90;;;;;;5056703;28;20041;-78
2022/06/08 02:21:48;;;;;;;57.50;19.73;;;20.50;99.90;;;;;;5056470;28;20056;-79
2022/06/08 02:24:34;;;;;;;327.38;89.72;;;20.40;99.90;;;;;;5056842;28;20055;-77
2022/06/08 02:27:11;;;;;;;54.70;13.05;;;20.30;99.90;;;;;;5056253;28;20029;-78
2022/06/08 02:29:43;;;;;;;15.20;11.65;;;20.20;99.90;;;;;;5056194;28;20017;-78
2022/06/08 02:35:09;;;;;;;214.20;83.53;;;19.90;99.90;;;;;;5055816;28;20126;-78
2022/06/08 02:37:37;;;;;;;107.47;46.05;;;19.80;99.90;;;;;;5056249;28;20032;-79
2022/06/08 02:40:08;;;;;;;88.05;31.90;;;19.70;99.90;;;;;;5056215;28;20044;-77
2022/06/08 02:42:44;;;;;;;245.90;87.60;;;19.60;99.90;;;;;;5055547;28;20467;-78
2022/06/08 02:45:32;;;;;;;257.02;78.88;;;19.50;99.90;;;;;;5054850;28;20095;-76
2022/06/08 02:48:03;;;;;;;61.92;14.50;;;19.60;99.90;;;;;;5056084;28;20379;-76
2022/06/08 02:50:30;;;;;;;1999.90;934.50;;;19.50;99.90;;;;;;5055712;28;20028;-76
2022/06/08 02:53:16;;;;;;;62.20;22.02;;;19.50;99.90;;;;;;5055927;28;20029;-77
2022/06/08 02:55:58;;;;;;;165.10;70.15;;;19.40;99.90;;;;;;5056043;28;20057;-76
2022/06/08 02:58:47;;;;;;;23.23;11.95;;;19.40;99.90;;;;;;5055901;28;20017;-77
2022/06/08 03:01:40;;;;;;;1992.78;999.90;;;19.30;99.90;;;;;;5055323;28;20379;-76
2022/06/08 03:04:22;;;;;;;299.15;201.57;;;19.30;99.90;;;;;;5055423;28;20028;-76
2022/06/08 03:06:56;;;;;;;77.72;33.50;;;19.30;99.90;;;;;;5056040;28;20025;-77
2022/06/08 03:09:24;;;;;;;89.47;36.83;;;19.40;99.90;;;;;;5055686;28;20451;-78
2022/06/08 03:12:02;;;;;;;244.55;99.28;;;19.30;99.90;;;;;;5053993;28;20379;-76
2022/06/08 03:14:30;;;;;;;12.48;7.38;;;19.40;99.90;;;;;;5055617;28;20025;-76
2022/06/08 03:16:57;;;;;;;15.77;9.65;;;19.40;99.90;;;;;;5055823;28;20146;-76
2022/06/08 03:19:25;;;;;;;409.83;266.17;;;19.50;99.90;;;;;;5054679;28;20096;-77
2022/06/08 03:21:51;;;;;;;978.85;589.50;;;19.50;99.90;;;;;;5055426;28;20021;-77
2022/06/08 03:24:17;;;;;;;1985.93;999.90;;;19.50;99.90;;;;;;5054775;28;20025;-76
2022/06/08 03:26:50;;;;;;;1657.47;999.90;;;19.50;99.90;;;;;;5053975;28;20036;-76
2022/06/08 03:29:17;;;;;;;1138.55;758.13;;;19.50;99.90;;;;;;5055273;28;20017;-76
2022/06/08 03:31:43;;;;;;;1839.38;979.60;;;19.60;99.90;;;;;;5054853;28;20028;-76
2022/06/08 03:34:09;;;;;;;1999.90;999.90;;;19.60;99.90;;;;;;5055190;28;20104;-78
2022/06/08 03:36:35;;;;;;;1999.90;999.90;;;19.70;99.90;;;;;;5055351;28;20031;-77
2022/06/08 03:39:01;;;;;;;1163.57;901.22;;;19.70;99.90;;;;;;5054798;28;20099;-76
2022/06/08 03:41:27;;;;;;;937.55;839.20;;;19.80;99.90;;;;;;5055060;28;20103;-76
2022/06/08 03:43:53;;;;;;;1470.95;912.45;;;19.80;99.90;;;;;;5055112;28;20333;-75
2022/06/08 03:46:20;;;;;;;188.68;117.25;;;19.80;99.90;;;;;;5054325;28;20447;-77
2022/06/08 03:48:46;;;;;;;1054.00;867.28;;;19.90;99.90;;;;;;5054816;28;20057;-76
2022/06/08 03:51:16;;;;;;;292.25;224.70;;;19.90;99.90;;;;;;5054571;28;20070;-76
2022/06/08 03:53:47;;;;;;;1999.90;992.70;;;19.90;99.90;;;;;;5054512;28;20108;-75
2022/06/08 03:56:16;;;;;;;287.85;235.75;;;19.90;99.90;;;;;;5054693;28;20024;-76
2022/06/08 03:58:42;;;;;;;813.00;726.90;;;20.00;99.90;;;;;;5054679;28;20111;-76
2022/06/08 04:01:08;;;;;;;1999.90;999.90;;;20.10;99.90;;;;;;5054573;28;20032;-75
2022/06/08 04:03:34;;;;;;;1781.53;950.30;;;20.10;99.90;;;;;;5054576;28;20019;-76
2022/06/08 04:06:00;;;;;;;1191.03;877.05;;;20.00;99.90;;;;;;5054493;28;20021;-77
2022/06/08 04:08:27;;;;;;;1999.90;999.90;;;20.00;99.90;;;;;;5054735;28;20064;-77
2022/06/08 04:10:53;;;;;;;585.58;175.50;;;20.10;99.90;;;;;;5054639;28;20025;-76
2022/06/08 04:13:18;;;;;;;15.38;12.05;;;20.10;99.90;;;;;;5054120;28;20099;-76
2022/06/08 04:15:44;;;;;;;23.83;13.50;;;20.10;99.90;;;;;;5053951;28;20020;-76
2022/06/08 04:18:16;;;;;;;19.08;14.77;;;20.10;99.90;;;;;;5052820;28;20121;-76
2022/06/08 04:20:44;;;;;;;18.48;12.70;;;20.10;99.90;;;;;;5054012;28;20024;-75
2022/06/08 04:23:10;;;;;;;23.13;15.07;;;20.20;99.90;;;;;;5054046;28;20029;-76
2022/06/08 04:25:37;;;;;;;18.83;11.00;;;20.20;99.90;;;;;;5054531;28;20463;-76
2022/06/08 04:28:03;;;;;;;24.00;12.07;;;20.30;99.90;;;;;;5053869;28;20443;-77
2022/06/08 04:30:29;;;;;;;13.93;10.30;;;20.40;99.90;;;;;;5054165;28;20024;-76
2022/06/08 04:32:55;;;;;;;15.40;11.80;;;20.40;99.90;;;;;;5053006;28;20021;-78
2022/06/08 04:35:21;;;;;;;16.02;11.65;;;20.50;99.90;;;;;;5053787;28;20410;-75
2022/06/08 04:37:47;;;;;;;18.35;11.57;;;20.60;99.90;;;;;;5052806;28;20028;-76
2022/06/08 04:40:15;;;;;;;11.07;9.68;;;20.60;99.90;;;;;;5054068;28;20501;-76
2022/06/08 04:42:41;;;;;;;16.00;13.15;;;20.70;99.90;;;;;;5053701;28;20032;-76
2022/06/08 04:45:09;;;;;;;17.23;11.85;;;20.80;99.90;;;;;;5054000;28;20096;-76
2022/06/08 04:47:36;;;;;;;24.05;12.73;;;20.90;99.90;;;;;;5053954;28;20079;-75
2022/06/08 04:50:03;;;;;;;14.40;11.55;;;21.00;99.90;;;;;;5053640;28;20025;-76
2022/06/08 04:52:29;;;;;;;17.17;13.30;;;21.00;99.90;;;;;;5053895;28;20021;-76
2022/06/08 04:54:54;;;;;;;25.92;13.60;;;21.00;99.90;;;;;;5053633;28;20021;-76
2022/06/08 04:57:20;;;;;;;23.00;12.55;;;21.00;99.90;;;;;;5053470;28;20104;-76
2022/06/08 04:59:46;;;;;;;18.50;11.20;;;21.10;99.90;;;;;;5053839;28;20076;-77
2022/06/08 05:02:42;;;;;;;20.00;11.77;;;21.20;99.90;;;;;;5053138;28;20017;-77
2022/06/08 05:04:57;;;;;;;15.85;9.68;;;21.20;99.90;;;;;;5053383;28;20112;-76
2022/06/08 05:07:23;;;;;;;13.15;9.30;;;21.30;99.90;;;;;;5053411;28;20132;-77
2022/06/08 05:09:49;;;;;;;16.30;8.90;;;21.40;99.90;;;;;;5056023;28;20021;-77
2022/06/08 05:12:15;;;;;;;19.73;10.52;;;21.40;99.90;;;;;;5057861;28;20013;-76
2022/06/08 05:14:40;;;;;;;52.70;16.15;;;21.40;99.90;;;;;;5057597;28;20024;-77
2022/06/08 05:17:06;;;;;;;16.52;9.80;;;21.50;99.90;;;;;;5057141;28;20032;-78
2022/06/08 05:19:32;;;;;;;45.58;21.65;;;21.50;99.90;;;;;;5056224;28;20075;-76
2022/06/08 05:21:58;;;;;;;14.02;10.80;;;21.50;99.90;;;;;;5057400;28;20025;-78
2022/06/08 05:24:23;;;;;;;18.10;10.95;;;21.50;99.90;;;;;;5057112;28;20039;-76
2022/06/08 05:26:49;;;;;;;14.00;9.30;;;21.50;99.90;;;;;;5057375;28;20039;-77
2022/06/08 05:29:15;;;;;;;14.15;9.50;;;21.40;99.90;;;;;;5057847;28;20021;-76
2022/06/08 05:31:40;;;;;;;25.98;13.10;;;21.40;99.90;;;;;;5056111;28;20017;-77
2022/06/08 05:34:06;;;;;;;24.48;13.07;;;21.60;99.90;;;;;;5054963;28;20035;-77
2022/06/08 05:36:32;;;;;;;17.10;12.43;;;21.60;99.90;;;;;;5054809;28;20390;-77
2022/06/08 05:38:58;;;;;;;109.60;48.05;;;21.70;99.90;;;;;;5056720;28;20521;-75
2022/06/08 05:41:24;;;;;;;15.10;10.10;;;21.80;99.90;;;;;;5056870;28;20017;-77
2022/06/08 05:43:50;;;;;;;17.38;10.85;;;21.70;99.90;;;;;;5055540;28;20029;-76
2022/06/08 05:46:16;;;;;;;32.28;20.52;;;21.70;99.90;;;;;;5056578;28;20491;-76
2022/06/08 05:48:43;;;;;;;54.95;16.90;;;21.70;99.90;;;;;;5055648;28;20029;-77
2022/06/08 05:51:09;;;;;;;23.27;12.88;;;21.70;99.90;;;;;;5056543;28;20020;-76
2022/06/08 05:53:35;;;;;;;19.20;11.88;;;21.60;99.90;;;;;;5056794;28;20021;-76
2022/06/08 05:56:02;;;;;;;21.05;11.35;;;21.60;99.90;;;;;;5057041;28;20029;-75
2022/06/08 05:58:28;;;;;;;79.75;19.58;;;21.70;99.90;;;;;;5056349;28;20379;-74
2022/06/08 06:00:53;;;;;;;38.40;20.25;;;21.70;99.90;;;;;;5055719;28;20028;-76
2022/06/08 06:03:19;;;;;;;18.85;14.93;;;21.70;99.90;;;;;;5056434;28;20021;-77
2022/06/08 06:05:46;;;;;;;16.80;11.70;;;21.70;99.90;;;;;;5056398;28;20028;-75
2022/06/08 06:08:12;;;;;;;136.30;44.70;;;21.80;99.90;;;;;;5055519;28;20036;-75
2022/06/08 06:10:40;;;;;;;29.15;14.48;;;21.80;99.90;;;;;;5056767;28;20040;-76
2022/06/08 06:13:07;;;;;;;15.55;10.88;;;21.90;99.90;;;;;;5056103;28;20017;-77
2022/06/08 06:15:33;;;;;;;69.47;23.63;;;21.90;99.90;;;;;;5056439;28;20028;-75
2022/06/08 06:17:58;;;;;;;18.00;10.75;;;21.90;99.90;;;;;;5056581;28;20045;-77
2022/06/08 06:20:24;;;;;;;127.00;39.22;;;21.90;99.90;;;;;;5056046;28;20049;-80
2022/06/08 06:22:50;;;;;;;1999.90;999.90;;;21.90;99.90;;;;;;5056302;28;20027;-77
2022/06/08 06:25:17;;;;;;;1999.90;999.90;;;21.80;99.90;;;;;;5056778;28;20418;-77
2022/06/08 06:27:43;;;;;;;1999.90;999.90;;;21.70;99.90;;;;;;5055769;28;20033;-77
2022/06/08 06:30:09;;;;;;;1999.90;999.90;;;21.60;99.90;;;;;;5056260;28;20025;-78
2022/06/08 06:32:37;;;;;;;1999.90;999.90;;;21.50;99.90;;;;;;5056385;28;20017;-79
2022/06/08 06:35:08;;;;;;;1999.90;999.90;;;21.20;99.90;;;;;;5054759;28;20359;-76
2022/06/08 06:37:34;;;;;;;1999.90;999.90;;;20.90;99.90;;;;;;5055275;28;20366;-75
2022/06/08 06:40:00;;;;;;;1999.90;999.90;;;20.60;99.90;;;;;;5055992;28;20017;-76
2022/06/08 06:42:29;;;;;;;63.47;14.77;;;20.20;99.90;;;;;;5056194;28;20021;-76
2022/06/08 06:44:54;;;;;;;1999.90;999.90;;;19.80;99.90;;;;;;5054877;28;20578;-76
2022/06/08 06:47:20;;;;;;;1474.80;936.80;;;19.50;99.90;;;;;;5055721;28;20108;-76
2022/06/08 06:49:47;;;;;;;1991.43;909.80;;;19.20;99.90;;;;;;5055754;28;20025;-76
2022/06/08 06:52:14;;;;;;;886.92;378.10;;;19.10;99.90;;;;;;5055961;28;20021;-77
2022/06/08 06:54:41;;;;;;;1999.90;999.90;;;18.80;99.90;;;;;;5055436;28;20378;-77
2022/06/08 06:57:07;;;;;;;1673.28;931.38;;;18.70;99.90;;;;;;5055897;28;20032;-76
2022/06/08 06:59:33;;;;;;;1999.90;999.90;;;18.40;99.90;;;;;;5056013;28;20028;-76
2022/06/08 07:01:59;;;;;;;16.52;7.18;;;18.20;99.90;;;;;;5055543;28;20017;-76
2022/06/08 07:04:25;;;;;;;33.22;15.98;;;18.10;99.90;;;;;;5055802;28;20053;-76
2022/06/08 07:06:53;;;;;;;16.88;7.25;;;18.10;99.90;;;;;;5055460;28;20049;-79
2022/06/08 07:09:18;;;;;;;20.48;8.15;;;17.90;99.90;;;;;;5054132;28;20514;-77
2022/06/08 07:11:45;;;;;;;14.27;6.97;;;17.80;99.90;;;;;;5054295;28;20117;-78
2022/06/08 07:14:17;;;;;;;13.88;7.47;;;17.80;99.90;;;;;;5054333;28;20021;-78
2022/06/08 07:16:45;;;;;;;15.93;8.13;;;17.70;99.90;;;;;;5055096;28;20044;-78
2022/06/08 07:19:11;;;;;;;16.13;6.30;;;17.70;99.90;;;;;;5053819;28;20049;-81
2022/06/08 07:21:38;;;;;;;14.95;7.32;;;17.70;99.90;;;;;;5055440;28;20481;-81
2022/06/08 07:24:04;;;;;;;13.25;7.28;;;17.70;99.90;;;;;;5054781;28;20021;-79
2022/06/08 07:26:30;;;;;;;14.05;6.90;;;17.60;99.90;;;;;;5055480;28;20029;-77
2022/06/08 07:28:57;;;;;;;11.15;6.30;;;17.60;99.90;;;;;;5053685;28;20041;-76
2022/06/08 07:31:23;;;;;;;10.32;5.50;;;17.60;99.90;;;;;;5053900;28;20104;-75
2022/06/08 07:33:50;;;;;;;13.63;6.70;;;17.60;99.90;;;;;;5054867;28;20025;-75
2022/06/08 07:36:17;;;;;;;17.05;7.35;;;17.70;99.90;;;;;;5053573;28;20452;-75
2022/06/08 07:38:43;;;;;;;12.13;6.47;;;17.80;99.90;;;;;;5055051;28;20111;-75
2022/06/08 07:41:09;;;;;;;11.13;6.13;;;18.00;99.90;;;;;;5055077;28;20032;-76
2022/06/08 07:43:35;;;;;;;10.23;5.97;;;18.10;99.90;;;;;;5054917;28;20021;-75
2022/06/08 07:46:01;;;;;;;9.68;5.85;;;18.20;99.90;;;;;;5055252;28;20051;-75
2022/06/08 07:51:11;;;;;;;10.60;6.47;;;18.30;99.90;;;;;;5054377;28;20032;-75
2022/06/08 07:53:37;;;;;;;6.95;4.57;;;18.30;99.90;;;;;;5054900;28;20021;-76
2022/06/08 07:56:03;;;;;;;10.55;4.90;;;18.40;99.90;;;;;;5055102;28;20495;-74
2022/06/08 07:58:29;;;;;;;5.38;4.30;;;18.50;99.90;;;;;;5054046;28;20112;-76
2022/06/08 08:00:57;;;;;;;9.65;4.55;;;18.40;99.90;;;;;;5054454;28;20099;-75
2022/06/08 08:03:23;;;;;;;8.43;5.05;;;18.40;99.90;;;;;;5054671;28;20020;-75
2022/06/08 08:05:49;;;;;;;8.40;5.30;;;18.50;99.90;;;;;;5054045;28;20020;-75
2022/06/08 08:08:17;;;;;;;10.57;6.25;;;18.50;99.90;;;;;;5054533;28;20052;-74
2022/06/08 08:10:44;;;;;;;9.68;5.28;;;18.60;99.90;;;;;;5054528;28;20032;-75
2022/06/08 08:13:10;;;;;;;8.93;5.80;;;18.70;99.90;;;;;;5053946;28;20451;-76
2022/06/08 08:15:38;;;;;;;10.40;5.38;;;18.70;99.90;;;;;;5054408;28;20100;-76
2022/06/08 08:18:04;;;;;;;9.82;5.55;;;18.70;99.90;;;;;;5053921;28;20076;-77
2022/06/08 08:20:31;;;;;;;9.57;5.65;;;18.80;99.90;;;;;;5054562;28;20059;-76
2022/06/08 08:22:58;;;;;;;12.43;6.82;;;19.00;99.90;;;;;;5052963;28;20021;-77
2022/06/08 08:25:26;;;;;;;12.95;6.35;;;19.10;99.90;;;;;;5053669;28;20455;-77
2022/06/08 08:27:53;;;;;;;9.50;5.18;;;19.20;99.90;;;;;;5053936;28;20028;-76
2022/06/08 08:30:22;;;;;;;7.20;4.95;;;19.20;99.90;;;;;;5054223;28;20017;-78
2022/06/08 08:32:48;;;;;;;9.93;5.75;;;19.20;99.90;;;;;;5053915;28;20017;-78
2022/06/08 08:35:16;;;;;;;11.38;6.72;;;19.30;99.90;;;;;;5054425;28;20036;-76
2022/06/08 08:37:42;;;;;;;10.75;7.03;;;19.40;99.90;;;;;;5054140;28;20029;-77
2022/06/08 08:40:31;;;;;;;14.90;6.55;;;19.30;99.90;;;;;;5052545;28;20024;-78
2022/06/08 08:42:58;;;;;;;7.57;6.72;;;19.10;99.90;;;;;;5054381;28;20021;-78
2022/06/08 08:45:24;;;;;;;9.18;6.00;;;19.00;99.90;;;;;;5053740;28;20021;-77
2022/06/08 08:47:57;;;;;;;9.20;6.15;;;18.90;99.90;;;;;;5053198;28;20036;-77
2022/06/08 08:50:26;;;;;;;9.27;7.40;;;18.90;99.90;;;;;;5053974;28;20017;-77
2022/06/08 08:53:09;;;;;;;10.93;7.93;;;18.80;99.90;;;;;;5053655;28;20640;-77
2022/06/08 08:55:44;;;;;;;9.57;7.50;;;18.90;99.90;;;;;;5052650;28;20029;-77
2022/06/08 08:58:20;;;;;;;13.27;7.18;;;19.00;99.90;;;;;;5053884;28;20050;-76
2022/06/08 09:00:56;;;;;;;8.55;6.90;;;19.00;99.90;;;;;;5053422;28;20029;-76
2022/06/08 09:03:33;;;;;;;14.13;7.70;;;19.10;99.90;;;;;;5053767;28;20067;-75
2022/06/08 09:06:12;;;;;;;9.23;6.80;;;19.10;99.90;;;;;;5053809;28;20079;-78
2022/06/08 09:08:38;;;;;;;8.18;5.57;;;19.10;99.90;;;;;;5053418;28;20032;-76
2022/06/08 09:11:13;;;;;;;11.88;6.18;;;19.10;99.90;;;;;;5053722;28;20018;-76
2022/06/08 09:13:50;;;;;;;6.50;5.90;;;19.10;99.90;;;;;;5053729;28;20028;-77
2022/06/08 09:16:27;;;;;;;6.95;5.47;;;19.00;99.90;;;;;;5053407;28;20100;-77
2022/06/08 09:18:53;;;;;;;9.70;6.75;;;19.00;99.90;;;;;;5053954;28;20049;-77
2022/06/08 09:21:21;;;;;;;9.68;5.65;;;18.90;99.90;;;;;;5052090;28;20116;-76
2022/06/08 09:23:52;;;;;;;7.07;5.35;;;19.00;99.90;;;;;;5053269;28;20079;-77
2022/06/08 09:26:23;;;;;;;10.00;5.97;;;19.00;99.90;;;;;;5053612;28;20057;-78
2022/06/08 09:29:02;;;;;;;8.82;7.20;;;19.10;99.90;;;;;;5051928;28;20119;-77
2022/06/08 09:31:33;;;;;;;7.32;5.63;;;19.20;99.90;;;;;;5053446;28;20083;-76
2022/06/08 09:34:15;;;;;;;6.57;5.13;;;19.20;99.90;;;;;;5053239;28;20104;-76
2022/06/08 09:36:42;;;;;;;8.50;6.30;;;19.20;99.90;;;;;;5053450;28;20032;-76
2022/06/08 09:39:15;;;;;;;8.82;5.82;;;19.30;99.90;;;;;;5053726;28;20017;-77
2022/06/08 09:41:51;;;;;;;8.38;6.47;;;19.30;99.90;;;;;;5053874;28;20021;-77
2022/06/08 09:44:39;;;;;;;7.55;5.55;;;19.40;99.90;;;;;;5052912;28;20024;-77
2022/06/08 09:53:06;;;;;;;7.68;6.57;;;19.80;99.90;;;;;;5053127;28;20032;-77
2022/06/08 09:55:47;;;;;;;9.32;5.60;;;19.90;99.90;;;;;;5056400;28;20032;-77
2022/06/08 09:58:13;;;;;;;7.63;6.28;;;20.10;99.90;;;;;;5056636;28;20032;-77
2022/06/08 10:01:08;;;;;;;7.10;5.28;;;20.30;99.90;;;;;;5056999;28;20021;-77
2022/06/08 10:03:52;;;;;;;5.22;4.60;;;20.40;99.90;;;;;;5056772;28;20475;-76
2022/06/08 10:06:30;;;;;;;6.93;5.28;;;20.50;99.90;;;;;;5056675;28;20055;-77
2022/06/08 10:09:17;;;;;;;8.27;5.15;;;20.60;99.90;;;;;;5056702;28;20162;-77
2022/06/08 10:12:14;;;;;;;10.20;5.63;;;20.90;99.90;;;;;;5055347;28;20074;-75
2022/06/08 10:15:12;;;;;;;7.32;4.60;;;21.20;99.90;;;;;;5056723;28;20021;-75
2022/06/08 10:17:46;;;;;;;6.90;4.43;;;21.30;99.90;;;;;;5056195;28;20024;-76
2022/06/08 10:20:31;;;;;;;8.52;4.30;;;21.20;99.90;;;;;;5056712;28;20052;-75
2022/06/08 10:23:00;;;;;;;6.93;3.72;;;;;;;;;;5056714;28;20032;-75
2022/06/08 10:25:42;;;;;;;5.57;4.65;;;21.30;99.90;;;;;;5056208;28;20032;-75
2022/06/08 10:28:24;;;;;;;5.88;4.20;;;21.90;99.90;;;;;;5056636;28;20025;-76
2022/06/08 10:30:57;;;;;;;4.40;4.00;;;21.90;99.90;;;;;;5056774;28;20021;-76
2022/06/08 10:33:26;;;;;;;6.22;4.25;;;21.90;99.90;;;;;;5056432;28;20021;-76
2022/06/08 10:35:57;;;;;;;5.70;5.10;;;22.00;99.90;;;;;;5056100;28;20017;-76
2022/06/08 10:38:33;;;;;;;8.77;7.13;;;22.40;99.90;;;;;;5056089;28;20112;-77
2022/06/08 10:42:39;;;;;;;5.57;5.07;;;;;;;;;;5056020;28;20415;-76
2022/06/08 10:43:55;;;;;;;5.20;4.70;;;;;;;;;;5055924;28;20025;-77
2022/06/08 10:46:32;;;;;;;5.90;5.30;;;;;;;;;;5055894;28;20013;-76
2022/06/08 10:48:59;;;;;;;4.88;4.47;;;;;;;;;;5054684;28;20031;-76
2022/06/08 10:51:31;;;;;;;8.45;5.03;;;;;;;;;;5055938;28;20439;-75
2022/06/08 10:56:42;;;;;;;4.40;4.00;;;;;;;;;;5055095;28;20422;-76
2022/06/08 10:59:08;;;;;;;4.43;4.03;;;;;;;;;;5054692;28;20024;-75
2022/06/08 11:01:53;;;;;;;5.00;4.47;;;;;;;;;;5055215;28;20017;-76
2022/06/08 11:04:31;;;;;;;4.80;4.40;;;;;;;;;;5054969;28;20025;-75
2022/06/08 11:07:11;;;;;;;5.05;4.65;;;;;;;;;;5054127;28;20052;-76
2022/06/08 11:09:39;;;;;;;6.22;4.60;;;;;;;;;;5055099;28;20013;-76
2022/06/08 11:12:06;;;;;;;6.10;5.45;;;;;;;;;;5054837;28;20013;-76
2022/06/08 11:14:57;;;;;;;6.00;5.50;;;;;;;;;;5054704;28;20044;-76
2022/06/08 11:17:57;;;;;;;5.70;5.22;;;;;;;;;;5054579;28;20013;-75
2022/06/08 11:20:27;;;;;;;5.40;4.90;;;;;;;;;;5044272;28;20407;-76
2022/06/08 11:22:58;;;;;;;4.73;4.40;;;;;;;;;;5054699;28;20009;-76
2022/06/08 11:25:32;;;;;;;5.57;5.07;;;;;;;;;;5054871;28;20016;-76
2022/06/08 11:28:16;;;;;;;5.45;4.95;;;;;;;;;;5054180;28;20371;-77
2022/06/08 11:30:42;;;;;;;5.15;4.30;;;;;;;;;;5054655;28;20031;-76
2022/06/08 11:33:17;;;;;;;5.32;4.82;;;;;;;;;;5053990;28;20475;-76
2022/06/08 11:35:50;;;;;;;5.53;5.00;;;;;;;;;;5054571;28;20021;-75
2022/06/08 11:38:31;;;;;;;4.50;4.15;;;;;;;;;;5054349;28;20027;-75
2022/06/08 11:41:20;;;;;;;4.90;4.50;;;;;;;;;;5054128;28;20021;-76
2022/06/08 11:43:48;;;;;;;5.55;5.05;;;;;;;;;;5054079;28;20027;-76
2022/06/08 11:46:30;;;;;;;5.50;4.88;;;;;;;;;;5054237;28;20443;-76
2022/06/08 11:48:56;;;;;;;6.20;5.57;;;;;;;;;;5053880;28;20021;-76
2022/06/08 11:51:49;;;;;;;6.32;5.72;;;;;;;;;;5054075;28;20151;-76
2022/06/08 11:54:17;;;;;;;6.35;5.80;;;;;;;;;;5052620;28;20033;-75
2022/06/08 11:56:57;;;;;;;7.22;6.60;;;;;;;;;;5053851;28;20013;-76
2022/06/08 11:59:23;;;;;;;5.32;4.93;;;;;;;;;;5053931;28;20077;-75
2022/06/08 12:01:52;;;;;;;5.60;5.20;;;;;;;;;;5054426;28;20633;-76
2022/06/08 12:04:24;;;;;;;5.72;5.18;;;;;;;;;;5053544;28;20051;-75
2022/06/08 12:06:51;;;;;;;6.47;5.97;;;;;;;;;;5053884;28;20024;-76
2022/06/08 12:09:28;;;;;;;5.80;5.10;;;;;;;;;;5053168;28;20040;-75
2022/06/08 12:11:55;;;;;;;6.40;5.80;;;;;;;;;;5053990;28;20013;-75
2022/06/08 12:14:21;;;;;;;5.95;5.45;;;;;;;;;;5053675;28;20013;-77
2022/06/08 12:16:53;;;;;;;5.97;5.47;;;;;;;;;;5053205;28;20047;-77
2022/06/08 12:19:20;;;;;;;4.80;4.50;;;;;;;;;;5053524;28;20390;-75
2022/06/08 12:21:48;;;;;;;4.95;4.63;;;;;;;;;;5054063;28;20033;-76
2022/06/08 12:24:14;;;;;;;5.72;5.32;;;;;;;;;;5051878;28;20351;-76
2022/06/08 12:26:48;;;;;;;6.07;5.35;;;;;;;;;;5053353;28;20020;-76
2022/06/08 12:29:14;;;;;;;5.35;4.85;;;;;;;;;;5053145;28;20052;-77
2022/06/08 12:31:40;;;;;;;6.20;4.90;;;;;;;;;;5053300;28;20013;-75
2022/06/08 12:34:26;;;;;;;6.10;4.82;;;;;;;;;;5052997;28;20035;-76
2022/06/08 12:36:53;;;;;;;5.35;4.95;;;;;;;;;;5053545;28;20013;-76
2022/06/08 12:39:24;;;;;;;5.70;5.20;;;;;;;;;;5052551;28;20013;-76
2022/06/08 12:41:51;;;;;;;;;;;;;;;;;;5054593;28;20100;-75
2022/06/08 12:44:25;;;;;;;6.20;5.55;;;;;;;;;;5053457;28;20102;-76
2022/06/08 12:46:53;;;;;;;6.00;5.50;;;;;;;;;;5054005;28;20024;-75
2022/06/08 12:49:24;;;;;;;6.25;5.65;;;;;;;;;;5054128;28;20024;-75
2022/06/08 12:51:52;;;;;;;6.63;6.13;;;;;;;;;;5053887;28;20020;-76
2022/06/08 12:54:20;;;;;;;4.82;4.50;;;;;;;;;;5053607;28;20031;-76
2022/06/08 12:56:48;;;;;;;6.55;6.05;;;;;;;;;;5053881;28;20099;-75
2022/06/08 12:59:15;;;;;;;6.82;6.22;;;;;;;;;;5052254;28;20021;-76
2022/06/08 13:01:44;;;;;;;7.38;6.78;;;;;;;;;;5052885;28;20012;-75
2022/06/08 13:04:12;;;;;;;6.65;6.03;;;;;;;;;;5053803;28;20021;-76
2022/06/08 13:06:38;;;;;;;6.20;5.57;;;;;;;;;;5053471;28;20064;-76
2022/06/08 13:09:04;;;;;;;6.30;5.80;;;;;;;;;;5053422;28;20016;-76
2022/06/08 13:11:31;;;;;;;6.55;5.50;;;;;;;;;;5053533;28;20017;-76
2022/06/08 13:13:58;;;;;;;6.47;5.88;;;;;;;;;;5052016;28;20021;-74
2022/06/08 13:16:25;;;;;;;7.20;6.50;;;;;;;;;;5053499;28;20013;-76
2022/06/08 13:18:52;;;;;;;6.70;6.20;;;;;;;;;;5053429;28;20040;-76
2022/06/08 13:21:19;;;;;;;6.55;5.95;;;;;;;;;;5053254;28;20127;-75
2022/06/08 13:23:45;;;;;;;6.50;6.00;;;;;;;;;;5052169;28;20070;-75
2022/06/08 13:26:24;;;;;;;6.15;5.72;;;;;;;;;;5051941;28;20086;-77
2022/06/08 13:28:50;;;;;;;6.68;6.15;;;;;;;;;;5054258;28;20109;-77